sensor_id;sensor_type;location;lat;lon;timestamp;P1;durP1;ratioP1;P2;durP2;ratioP2
68319;SDS011;55168;51.120;17.024;2023-03-18T00:00:00;18.7;;;11.5;;
68319;SDS011;55168;51.120;17.024;2023-03-18T00:01:01;18.7;;;11.5;;
68319;SDS011;55168;51.120;17.024;2023-03-18T00:02:00;18.7;;;11.5;;
68319;SDS011;55168;51.120;17.024;2023-03-18T00:03:00;21.8;;;12.1;;
68319;SDS011;55168;51.120;17.024;2023-03-18T00:04:00;21.8;;;12.1;;
68319;SDS011;55168;51.120;17.024;2023-03-18T00:05:00;21.8;;;12.1;;
68319;SDS011;55168;51.120;17.024;2023-03-18T00:06:03;21.8;;;12.1;;
68319;SDS011;55168;51.120;17.024;2023-03-18T00:07:00;21.8;;;12.1;;
68319;SDS011;55168;51.120;17.024;2023-03-18T00:08:00;19.5;;;11.9;;
68319;SDS011;55168;51.120;17.024;2023-03-18T00:09:00;19.5;;;11.9;;
68319;SDS011;55168;51.120;17.024;2023-03-18T00:10:00;19.5;;;11.9;;
68319;SDS011;55168;51.120;17.024;2023-03-18T00:11:00;19.5;;;11.9;;
68319;SDS011;55168;51.120;17.024;2023-03-18T00:12:00;19.5;;;11.9;;
68319;SDS011;55168;51.120;17.024;2023-03-18T00:13:01;17.5;;;11.9;;
68319;SDS011;55168;51.120;17.024;2023-03-18T00:14:00;17.5;;;11.9;;
68319;SDS011;55168;51.120;17.024;2023-03-18T00:15:00;17.5;;;11.9;;
68319;SDS011;55168;51.120;17.024;2023-03-18T00:16:01;17.5;;;11.9;;
68319;SDS011;55168;51.120;17.024;2023-03-18T00:17:00;17.5;;;11.9;;
68319;SDS011;55168;51.120;17.024;2023-03-18T00:18:00;18.0;;;12.0;;
68319;SDS011;55168;51.120;17.024;2023-03-18T00:19:00;18.0;;;12.0;;
68319;SDS011;55168;51.120;17.024;2023-03-18T00:20:00;18.0;;;12.0;;
68319;SDS011;55168;51.120;17.024;2023-03-18T00:21:00;18.0;;;12.0;;
68319;SDS011;55168;51.120;17.024;2023-03-18T00:22:00;18.0;;;12.0;;
68319;SDS011;55168;51.120;17.024;2023-03-18T00:23:00;20.8;;;12.7;;
68319;SDS011;55168;51.120;17.024;2023-03-18T00:24:01;20.8;;;12.7;;
68319;SDS011;55168;51.120;17.024;2023-03-18T00:25:01;20.8;;;12.7;;
68319;SDS011;55168;51.120;17.024;2023-03-18T00:26:00;20.8;;;12.7;;
68319;SDS011;55168;51.120;17.024;2023-03-18T00:27:00;20.8;;;12.7;;
68319;SDS011;55168;51.120;17.024;2023-03-18T00:28:00;19.5;;;11.2;;
68319;SDS011;55168;51.120;17.024;2023-03-18T00:29:00;19.5;;;11.2;;
68319;SDS011;55168;51.120;17.024;2023-03-18T00:30:01;19.5;;;11.2;;
68319;SDS011;55168;51.120;17.024;2023-03-18T00:31:04;19.5;;;11.2;;
68319;SDS011;55168;51.120;17.024;2023-03-18T00:32:00;19.5;;;11.2;;
68319;SDS011;55168;51.120;17.024;2023-03-18T00:33:00;20.8;;;12.0;;
68319;SDS011;55168;51.120;17.024;2023-03-18T00:34:00;20.8;;;12.0;;
68319;SDS011;55168;51.120;17.024;2023-03-18T00:35:00;20.8;;;12.0;;
68319;SDS011;55168;51.120;17.024;2023-03-18T00:36:00;20.8;;;12.0;;
68319;SDS011;55168;51.120;17.024;2023-03-18T00:37:00;20.8;;;12.0;;
68319;SDS011;55168;51.120;17.024;2023-03-18T00:38:00;17.4;;;11.2;;
68319;SDS011;55168;51.120;17.024;2023-03-18T00:39:00;17.4;;;11.2;;
68319;SDS011;55168;51.120;17.024;2023-03-18T00:40:04;17.4;;;11.2;;
68319;SDS011;55168;51.120;17.024;2023-03-18T00:41:00;17.4;;;11.2;;
68319;SDS011;55168;51.120;17.024;2023-03-18T00:42:00;17.4;;;11.2;;
68319;SDS011;55168;51.120;17.024;2023-03-18T00:43:00;18.3;;;11.9;;
68319;SDS011;55168;51.120;17.024;2023-03-18T00:44:00;18.3;;;11.9;;
68319;SDS011;55168;51.120;17.024;2023-03-18T00:45:00;18.3;;;11.9;;
68319;SDS011;55168;51.120;17.024;2023-03-18T00:46:00;18.3;;;11.9;;
68319;SDS011;55168;51.120;17.024;2023-03-18T00:47:00;18.3;;;11.9;;
68319;SDS011;55168;51.120;17.024;2023-03-18T00:48:00;16.1;;;11.4;;
68319;SDS011;55168;51.120;17.024;2023-03-18T00:49:04;16.1;;;11.4;;
68319;SDS011;55168;51.120;17.024;2023-03-18T00:50:00;16.1;;;11.4;;
68319;SDS011;55168;51.120;17.024;2023-03-18T00:51:00;16.1;;;11.4;;
68319;SDS011;55168;51.120;17.024;2023-03-18T00:52:00;16.1;;;11.4;;
68319;SDS011;55168;51.120;17.024;2023-03-18T00:53:00;17.3;;;11.5;;
68319;SDS011;55168;51.120;17.024;2023-03-18T00:54:03;17.3;;;11.5;;
68319;SDS011;55168;51.120;17.024;2023-03-18T00:55:00;17.3;;;11.5;;
68319;SDS011;55168;51.120;17.024;2023-03-18T00:56:00;17.3;;;11.5;;
68319;SDS011;55168;51.120;17.024;2023-03-18T00:57:00;17.3;;;11.5;;
68319;SDS011;55168;51.120;17.024;2023-03-18T00:58:00;16.9;;;11.6;;
68319;SDS011;55168;51.120;17.024;2023-03-18T00:59:00;16.9;;;11.6;;
68319;SDS011;55168;51.120;17.024;2023-03-18T01:00:00;16.9;;;11.6;;
68319;SDS011;55168;51.120;17.024;2023-03-18T01:01:00;16.9;;;11.6;;
68319;SDS011;55168;51.120;17.024;2023-03-18T01:02:00;16.9;;;11.6;;
68319;SDS011;55168;51.120;17.024;2023-03-18T01:03:00;17.0;;;11.3;;
68319;SDS011;55168;51.120;17.024;2023-03-18T01:04:00;17.0;;;11.3;;
68319;SDS011;55168;51.120;17.024;2023-03-18T01:05:00;17.0;;;11.3;;
68319;SDS011;55168;51.120;17.024;2023-03-18T01:06:00;17.0;;;11.3;;
68319;SDS011;55168;51.120;17.024;2023-03-18T01:07:00;17.0;;;11.3;;
68319;SDS011;55168;51.120;17.024;2023-03-18T01:08:00;20.7;;;11.9;;
68319;SDS011;55168;51.120;17.024;2023-03-18T01:09:01;20.7;;;11.9;;
68319;SDS011;55168;51.120;17.024;2023-03-18T01:10:00;20.7;;;11.9;;
68319;SDS011;55168;51.120;17.024;2023-03-18T01:11:01;20.7;;;11.9;;
68319;SDS011;55168;51.120;17.024;2023-03-18T01:12:00;20.7;;;11.9;;
68319;SDS011;55168;51.120;17.024;2023-03-18T01:13:00;16.9;;;11.3;;
68319;SDS011;55168;51.120;17.024;2023-03-18T01:14:01;16.9;;;11.3;;
68319;SDS011;55168;51.120;17.024;2023-03-18T01:15:01;16.9;;;11.3;;
68319;SDS011;55168;51.120;17.024;2023-03-18T01:16:00;16.9;;;11.3;;
68319;SDS011;55168;51.120;17.024;2023-03-18T01:17:00;16.9;;;11.3;;
68319;SDS011;55168;51.120;17.024;2023-03-18T01:18:00;20.1;;;12.5;;
68319;SDS011;55168;51.120;17.024;2023-03-18T01:19:00;20.1;;;12.5;;
68319;SDS011;55168;51.120;17.024;2023-03-18T01:20:00;20.1;;;12.5;;
68319;SDS011;55168;51.120;17.024;2023-03-18T01:21:00;20.1;;;12.5;;
68319;SDS011;55168;51.120;17.024;2023-03-18T01:22:01;20.1;;;12.5;;
68319;SDS011;55168;51.120;17.024;2023-03-18T01:23:00;17.2;;;11.2;;
68319;SDS011;55168;51.120;17.024;2023-03-18T01:24:00;17.2;;;11.2;;
68319;SDS011;55168;51.120;17.024;2023-03-18T01:25:00;17.2;;;11.2;;
68319;SDS011;55168;51.120;17.024;2023-03-18T01:26:00;17.2;;;11.2;;
68319;SDS011;55168;51.120;17.024;2023-03-18T01:27:00;17.2;;;11.2;;
68319;SDS011;55168;51.120;17.024;2023-03-18T01:28:00;16.1;;;11.5;;
68319;SDS011;55168;51.120;17.024;2023-03-18T01:29:00;16.1;;;11.5;;
68319;SDS011;55168;51.120;17.024;2023-03-18T01:30:00;16.1;;;11.5;;
68319;SDS011;55168;51.120;17.024;2023-03-18T01:31:00;16.1;;;11.5;;
68319;SDS011;55168;51.120;17.024;2023-03-18T01:32:00;16.1;;;11.5;;
68319;SDS011;55168;51.120;17.024;2023-03-18T01:33:01;16.4;;;11.5;;
68319;SDS011;55168;51.120;17.024;2023-03-18T01:34:00;16.4;;;11.5;;
68319;SDS011;55168;51.120;17.024;2023-03-18T01:35:00;16.4;;;11.5;;
68319;SDS011;55168;51.120;17.024;2023-03-18T01:36:00;16.4;;;11.5;;
68319;SDS011;55168;51.120;17.024;2023-03-18T01:37:00;16.4;;;11.5;;
68319;SDS011;55168;51.120;17.024;2023-03-18T01:38:01;16.6;;;11.5;;
68319;SDS011;55168;51.120;17.024;2023-03-18T01:39:00;16.6;;;11.5;;
68319;SDS011;55168;51.120;17.024;2023-03-18T01:40:00;16.6;;;11.5;;
68319;SDS011;55168;51.120;17.024;2023-03-18T01:41:00;16.6;;;11.5;;
68319;SDS011;55168;51.120;17.024;2023-03-18T01:42:00;16.6;;;11.5;;
68319;SDS011;55168;51.120;17.024;2023-03-18T01:43:13;17.1;;;11.2;;
68319;SDS011;55168;51.120;17.024;2023-03-18T01:44:00;17.1;;;11.2;;
68319;SDS011;55168;51.120;17.024;2023-03-18T01:45:19;17.1;;;11.2;;
68319;SDS011;55168;51.120;17.024;2023-03-18T01:46:21;17.1;;;11.2;;
68319;SDS011;55168;51.120;17.024;2023-03-18T01:47:00;17.1;;;11.2;;
68319;SDS011;55168;51.120;17.024;2023-03-18T01:48:00;16.2;;;11.0;;
68319;SDS011;55168;51.120;17.024;2023-03-18T01:49:04;16.2;;;11.0;;
68319;SDS011;55168;51.120;17.024;2023-03-18T01:50:01;16.2;;;11.0;;
68319;SDS011;55168;51.120;17.024;2023-03-18T01:51:04;16.2;;;11.0;;
68319;SDS011;55168;51.120;17.024;2023-03-18T01:53:05;14.9;;;9.9;;
68319;SDS011;55168;51.120;17.024;2023-03-18T01:54:02;14.9;;;9.9;;
68319;SDS011;55168;51.120;17.024;2023-03-18T01:55:05;14.9;;;9.9;;
68319;SDS011;55168;51.120;17.024;2023-03-18T01:56:01;14.9;;;9.9;;
68319;SDS011;55168;51.120;17.024;2023-03-18T01:57:01;17.1;;;10.5;;
68319;SDS011;55168;51.120;17.024;2023-03-18T01:58:03;17.1;;;10.5;;
68319;SDS011;55168;51.120;17.024;2023-03-18T01:59:00;17.1;;;10.5;;
68319;SDS011;55168;51.120;17.024;2023-03-18T02:00:02;17.1;;;10.5;;
68319;SDS011;55168;51.120;17.024;2023-03-18T02:01:02;17.1;;;10.5;;
68319;SDS011;55168;51.120;17.024;2023-03-18T02:02:04;14.8;;;10.0;;
68319;SDS011;55168;51.120;17.024;2023-03-18T02:03:00;14.8;;;10.0;;
68319;SDS011;55168;51.120;17.024;2023-03-18T02:04:01;14.8;;;10.0;;
68319;SDS011;55168;51.120;17.024;2023-03-18T02:05:03;14.8;;;10.0;;
68319;SDS011;55168;51.120;17.024;2023-03-18T02:06:00;14.8;;;10.0;;
68319;SDS011;55168;51.120;17.024;2023-03-18T02:07:00;15.7;;;10.4;;
68319;SDS011;55168;51.120;17.024;2023-03-18T02:08:00;15.7;;;10.4;;
68319;SDS011;55168;51.120;17.024;2023-03-18T02:09:01;15.7;;;10.4;;
68319;SDS011;55168;51.120;17.024;2023-03-18T02:10:05;15.7;;;10.4;;
68319;SDS011;55168;51.120;17.024;2023-03-18T02:11:01;15.7;;;10.4;;
68319;SDS011;55168;51.120;17.024;2023-03-18T02:12:01;13.4;;;10.1;;
68319;SDS011;55168;51.120;17.024;2023-03-18T02:13:03;13.4;;;10.1;;
68319;SDS011;55168;51.120;17.024;2023-03-18T02:14:01;13.4;;;10.1;;
68319;SDS011;55168;51.120;17.024;2023-03-18T02:15:03;13.4;;;10.1;;
68319;SDS011;55168;51.120;17.024;2023-03-18T02:16:04;13.4;;;10.1;;
68319;SDS011;55168;51.120;17.024;2023-03-18T02:17:05;13.7;;;9.7;;
68319;SDS011;55168;51.120;17.024;2023-03-18T02:18:06;13.7;;;9.7;;
68319;SDS011;55168;51.120;17.024;2023-03-18T02:19:08;13.7;;;9.7;;
68319;SDS011;55168;51.120;17.024;2023-03-18T02:20:29;13.7;;;9.7;;
68319;SDS011;55168;51.120;17.024;2023-03-18T02:21:14;13.7;;;9.7;;
68319;SDS011;55168;51.120;17.024;2023-03-18T02:24:06;14.2;;;9.2;;
68319;SDS011;55168;51.120;17.024;2023-03-18T02:26:13;14.2;;;9.2;;
68319;SDS011;55168;51.120;17.024;2023-03-18T02:27:13;14.2;;;9.1;;
68319;SDS011;55168;51.120;17.024;2023-03-18T02:28:02;14.2;;;9.1;;
68319;SDS011;55168;51.120;17.024;2023-03-18T02:29:02;14.2;;;9.1;;
68319;SDS011;55168;51.120;17.024;2023-03-18T02:30:05;14.2;;;9.1;;
68319;SDS011;55168;51.120;17.024;2023-03-18T02:31:03;14.2;;;9.1;;
68319;SDS011;55168;51.120;17.024;2023-03-18T02:32:02;12.8;;;8.7;;
68319;SDS011;55168;51.120;17.024;2023-03-18T02:33:01;12.8;;;8.7;;
68319;SDS011;55168;51.120;17.024;2023-03-18T02:34:00;12.8;;;8.7;;
68319;SDS011;55168;51.120;17.024;2023-03-18T02:35:03;12.8;;;8.7;;
68319;SDS011;55168;51.120;17.024;2023-03-18T02:36:06;12.8;;;8.7;;
68319;SDS011;55168;51.120;17.024;2023-03-18T02:37:01;11.3;;;8.6;;
68319;SDS011;55168;51.120;17.024;2023-03-18T02:38:01;11.3;;;8.6;;
68319;SDS011;55168;51.120;17.024;2023-03-18T02:39:00;11.3;;;8.6;;
68319;SDS011;55168;51.120;17.024;2023-03-18T02:40:11;11.3;;;8.6;;
68319;SDS011;55168;51.120;17.024;2023-03-18T02:41:00;11.3;;;8.6;;
68319;SDS011;55168;51.120;17.024;2023-03-18T02:42:00;13.0;;;8.7;;
68319;SDS011;55168;51.120;17.024;2023-03-18T02:43:14;13.0;;;8.7;;
68319;SDS011;55168;51.120;17.024;2023-03-18T02:44:01;13.0;;;8.7;;
68319;SDS011;55168;51.120;17.024;2023-03-18T02:45:00;13.0;;;8.7;;
68319;SDS011;55168;51.120;17.024;2023-03-18T02:47:03;12.5;;;8.8;;
68319;SDS011;55168;51.120;17.024;2023-03-18T02:48:01;12.5;;;8.8;;
68319;SDS011;55168;51.120;17.024;2023-03-18T02:49:01;12.5;;;8.8;;
68319;SDS011;55168;51.120;17.024;2023-03-18T02:50:00;12.5;;;8.8;;
68319;SDS011;55168;51.120;17.024;2023-03-18T02:51:00;12.5;;;8.8;;
68319;SDS011;55168;51.120;17.024;2023-03-18T02:52:00;11.4;;;8.5;;
68319;SDS011;55168;51.120;17.024;2023-03-18T02:53:01;11.4;;;8.5;;
68319;SDS011;55168;51.120;17.024;2023-03-18T02:54:06;11.4;;;8.5;;
68319;SDS011;55168;51.120;17.024;2023-03-18T02:55:00;11.4;;;8.5;;
68319;SDS011;55168;51.120;17.024;2023-03-18T02:56:00;11.4;;;8.5;;
68319;SDS011;55168;51.120;17.024;2023-03-18T02:57:00;12.2;;;8.1;;
68319;SDS011;55168;51.120;17.024;2023-03-18T02:58:00;12.2;;;8.1;;
68319;SDS011;55168;51.120;17.024;2023-03-18T02:59:00;12.2;;;8.1;;
68319;SDS011;55168;51.120;17.024;2023-03-18T03:00:00;12.2;;;8.1;;
68319;SDS011;55168;51.120;17.024;2023-03-18T03:01:00;12.2;;;8.1;;
68319;SDS011;55168;51.120;17.024;2023-03-18T03:02:00;11.0;;;8.1;;
68319;SDS011;55168;51.120;17.024;2023-03-18T03:03:01;11.0;;;8.1;;
68319;SDS011;55168;51.120;17.024;2023-03-18T03:04:01;11.0;;;8.1;;
68319;SDS011;55168;51.120;17.024;2023-03-18T03:05:02;11.0;;;8.1;;
68319;SDS011;55168;51.120;17.024;2023-03-18T03:06:00;11.0;;;8.1;;
68319;SDS011;55168;51.120;17.024;2023-03-18T03:07:00;13.5;;;8.7;;
68319;SDS011;55168;51.120;17.024;2023-03-18T03:08:00;13.5;;;8.7;;
68319;SDS011;55168;51.120;17.024;2023-03-18T03:09:00;13.5;;;8.7;;
68319;SDS011;55168;51.120;17.024;2023-03-18T03:10:00;13.5;;;8.7;;
68319;SDS011;55168;51.120;17.024;2023-03-18T03:11:00;13.5;;;8.7;;
68319;SDS011;55168;51.120;17.024;2023-03-18T03:12:00;13.5;;;8.4;;
68319;SDS011;55168;51.120;17.024;2023-03-18T03:13:00;13.5;;;8.4;;
68319;SDS011;55168;51.120;17.024;2023-03-18T03:14:00;13.5;;;8.4;;
68319;SDS011;55168;51.120;17.024;2023-03-18T03:15:00;13.5;;;8.4;;
68319;SDS011;55168;51.120;17.024;2023-03-18T03:16:00;13.5;;;8.4;;
68319;SDS011;55168;51.120;17.024;2023-03-18T03:17:00;13.6;;;8.2;;
68319;SDS011;55168;51.120;17.024;2023-03-18T03:18:00;13.6;;;8.2;;
68319;SDS011;55168;51.120;17.024;2023-03-18T03:19:00;13.6;;;8.2;;
68319;SDS011;55168;51.120;17.024;2023-03-18T03:20:00;13.6;;;8.2;;
68319;SDS011;55168;51.120;17.024;2023-03-18T03:21:00;13.6;;;8.2;;
68319;SDS011;55168;51.120;17.024;2023-03-18T03:22:00;12.2;;;7.9;;
68319;SDS011;55168;51.120;17.024;2023-03-18T03:23:01;12.2;;;7.9;;
68319;SDS011;55168;51.120;17.024;2023-03-18T03:24:01;12.2;;;7.9;;
68319;SDS011;55168;51.120;17.024;2023-03-18T03:25:00;12.2;;;7.9;;
68319;SDS011;55168;51.120;17.024;2023-03-18T03:26:00;12.2;;;7.9;;
68319;SDS011;55168;51.120;17.024;2023-03-18T03:27:00;13.5;;;7.9;;
68319;SDS011;55168;51.120;17.024;2023-03-18T03:28:00;13.5;;;7.9;;
68319;SDS011;55168;51.120;17.024;2023-03-18T03:29:01;13.5;;;7.9;;
68319;SDS011;55168;51.120;17.024;2023-03-18T03:30:00;13.5;;;7.9;;
68319;SDS011;55168;51.120;17.024;2023-03-18T03:31:00;13.5;;;7.9;;
68319;SDS011;55168;51.120;17.024;2023-03-18T03:32:00;11.9;;;8.1;;
68319;SDS011;55168;51.120;17.024;2023-03-18T03:33:00;11.9;;;8.1;;
68319;SDS011;55168;51.120;17.024;2023-03-18T03:34:00;11.9;;;8.1;;
68319;SDS011;55168;51.120;17.024;2023-03-18T03:35:00;11.9;;;8.1;;
68319;SDS011;55168;51.120;17.024;2023-03-18T03:36:00;11.9;;;8.1;;
68319;SDS011;55168;51.120;17.024;2023-03-18T03:37:00;10.2;;;7.7;;
68319;SDS011;55168;51.120;17.024;2023-03-18T03:38:00;10.2;;;7.7;;
68319;SDS011;55168;51.120;17.024;2023-03-18T03:39:00;10.2;;;7.7;;
68319;SDS011;55168;51.120;17.024;2023-03-18T03:40:00;10.2;;;7.7;;
68319;SDS011;55168;51.120;17.024;2023-03-18T03:41:00;10.2;;;7.7;;
68319;SDS011;55168;51.120;17.024;2023-03-18T03:42:00;10.3;;;7.1;;
68319;SDS011;55168;51.120;17.024;2023-03-18T03:43:00;10.3;;;7.1;;
68319;SDS011;55168;51.120;17.024;2023-03-18T03:44:00;10.3;;;7.1;;
68319;SDS011;55168;51.120;17.024;2023-03-18T03:45:00;10.3;;;7.1;;
68319;SDS011;55168;51.120;17.024;2023-03-18T03:46:00;10.3;;;7.1;;
68319;SDS011;55168;51.120;17.024;2023-03-18T03:47:00;11.2;;;7.2;;
68319;SDS011;55168;51.120;17.024;2023-03-18T03:48:00;11.2;;;7.2;;
68319;SDS011;55168;51.120;17.024;2023-03-18T03:49:00;11.2;;;7.2;;
68319;SDS011;55168;51.120;17.024;2023-03-18T03:50:00;11.2;;;7.2;;
68319;SDS011;55168;51.120;17.024;2023-03-18T03:51:00;11.2;;;7.2;;
68319;SDS011;55168;51.120;17.024;2023-03-18T03:52:00;12.2;;;8.0;;
68319;SDS011;55168;51.120;17.024;2023-03-18T03:53:00;12.2;;;8.0;;
68319;SDS011;55168;51.120;17.024;2023-03-18T03:54:00;12.2;;;8.0;;
68319;SDS011;55168;51.120;17.024;2023-03-18T03:55:00;12.2;;;8.0;;
68319;SDS011;55168;51.120;17.024;2023-03-18T03:56:00;12.2;;;8.0;;
68319;SDS011;55168;51.120;17.024;2023-03-18T03:57:00;11.5;;;7.3;;
68319;SDS011;55168;51.120;17.024;2023-03-18T03:58:00;11.5;;;7.3;;
68319;SDS011;55168;51.120;17.024;2023-03-18T03:59:00;11.5;;;7.3;;
68319;SDS011;55168;51.120;17.024;2023-03-18T04:00:01;11.5;;;7.3;;
68319;SDS011;55168;51.120;17.024;2023-03-18T04:01:00;11.5;;;7.3;;
68319;SDS011;55168;51.120;17.024;2023-03-18T04:02:00;10.5;;;7.4;;
68319;SDS011;55168;51.120;17.024;2023-03-18T04:03:00;10.5;;;7.4;;
68319;SDS011;55168;51.120;17.024;2023-03-18T04:04:00;10.5;;;7.4;;
68319;SDS011;55168;51.120;17.024;2023-03-18T04:05:00;10.5;;;7.4;;
68319;SDS011;55168;51.120;17.024;2023-03-18T04:06:00;10.5;;;7.4;;
68319;SDS011;55168;51.120;17.024;2023-03-18T04:07:00;11.9;;;7.2;;
68319;SDS011;55168;51.120;17.024;2023-03-18T04:08:00;11.9;;;7.2;;
68319;SDS011;55168;51.120;17.024;2023-03-18T04:09:00;11.9;;;7.2;;
68319;SDS011;55168;51.120;17.024;2023-03-18T04:10:00;11.9;;;7.2;;
68319;SDS011;55168;51.120;17.024;2023-03-18T04:11:00;11.9;;;7.2;;
68319;SDS011;55168;51.120;17.024;2023-03-18T04:12:01;9.3;;;7.2;;
68319;SDS011;55168;51.120;17.024;2023-03-18T04:13:00;9.3;;;7.2;;
68319;SDS011;55168;51.120;17.024;2023-03-18T04:14:00;9.3;;;7.2;;
68319;SDS011;55168;51.120;17.024;2023-03-18T04:15:00;9.3;;;7.2;;
68319;SDS011;55168;51.120;17.024;2023-03-18T04:16:00;9.3;;;7.2;;
68319;SDS011;55168;51.120;17.024;2023-03-18T04:17:00;11.8;;;7.7;;
68319;SDS011;55168;51.120;17.024;2023-03-18T04:18:00;11.8;;;7.7;;
68319;SDS011;55168;51.120;17.024;2023-03-18T04:19:00;11.8;;;7.7;;
68319;SDS011;55168;51.120;17.024;2023-03-18T04:20:00;11.8;;;7.7;;
68319;SDS011;55168;51.120;17.024;2023-03-18T04:21:00;11.8;;;7.7;;
68319;SDS011;55168;51.120;17.024;2023-03-18T04:22:00;10.7;;;7.0;;
68319;SDS011;55168;51.120;17.024;2023-03-18T04:23:00;10.7;;;7.0;;
68319;SDS011;55168;51.120;17.024;2023-03-18T04:24:00;10.7;;;7.0;;
68319;SDS011;55168;51.120;17.024;2023-03-18T04:25:00;10.7;;;7.0;;
68319;SDS011;55168;51.120;17.024;2023-03-18T04:26:00;10.7;;;7.0;;
68319;SDS011;55168;51.120;17.024;2023-03-18T04:27:00;11.6;;;7.6;;
68319;SDS011;55168;51.120;17.024;2023-03-18T04:28:00;11.6;;;7.6;;
68319;SDS011;55168;51.120;17.024;2023-03-18T04:29:00;11.6;;;7.6;;
68319;SDS011;55168;51.120;17.024;2023-03-18T04:30:00;11.6;;;7.6;;
68319;SDS011;55168;51.120;17.024;2023-03-18T04:31:00;11.6;;;7.6;;
68319;SDS011;55168;51.120;17.024;2023-03-18T04:32:00;10.1;;;7.0;;
68319;SDS011;55168;51.120;17.024;2023-03-18T04:33:00;10.1;;;7.0;;
68319;SDS011;55168;51.120;17.024;2023-03-18T04:34:00;10.1;;;7.0;;
68319;SDS011;55168;51.120;17.024;2023-03-18T04:35:00;10.1;;;7.0;;
68319;SDS011;55168;51.120;17.024;2023-03-18T04:36:00;10.1;;;7.0;;
68319;SDS011;55168;51.120;17.024;2023-03-18T04:37:00;11.0;;;6.9;;
68319;SDS011;55168;51.120;17.024;2023-03-18T04:38:00;11.0;;;6.9;;
68319;SDS011;55168;51.120;17.024;2023-03-18T04:39:01;11.0;;;6.9;;
68319;SDS011;55168;51.120;17.024;2023-03-18T04:40:00;11.0;;;6.9;;
68319;SDS011;55168;51.120;17.024;2023-03-18T04:41:00;11.0;;;6.9;;
68319;SDS011;55168;51.120;17.024;2023-03-18T04:42:00;9.5;;;6.9;;
68319;SDS011;55168;51.120;17.024;2023-03-18T04:43:00;9.5;;;6.9;;
68319;SDS011;55168;51.120;17.024;2023-03-18T04:44:00;9.5;;;6.9;;
68319;SDS011;55168;51.120;17.024;2023-03-18T04:45:00;9.5;;;6.9;;
68319;SDS011;55168;51.120;17.024;2023-03-18T04:46:00;9.5;;;6.9;;
68319;SDS011;55168;51.120;17.024;2023-03-18T04:47:00;11.5;;;7.3;;
68319;SDS011;55168;51.120;17.024;2023-03-18T04:48:00;11.5;;;7.3;;
68319;SDS011;55168;51.120;17.024;2023-03-18T04:49:00;11.5;;;7.3;;
68319;SDS011;55168;51.120;17.024;2023-03-18T04:50:00;11.5;;;7.3;;
68319;SDS011;55168;51.120;17.024;2023-03-18T04:51:00;11.5;;;7.3;;
68319;SDS011;55168;51.120;17.024;2023-03-18T04:52:00;12.2;;;7.4;;
68319;SDS011;55168;51.120;17.024;2023-03-18T04:53:00;12.2;;;7.4;;
68319;SDS011;55168;51.120;17.024;2023-03-18T04:54:00;12.2;;;7.4;;
68319;SDS011;55168;51.120;17.024;2023-03-18T04:55:00;12.2;;;7.4;;
68319;SDS011;55168;51.120;17.024;2023-03-18T04:56:00;12.2;;;7.4;;
68319;SDS011;55168;51.120;17.024;2023-03-18T04:57:00;9.8;;;7.1;;
68319;SDS011;55168;51.120;17.024;2023-03-18T04:58:00;9.8;;;7.1;;
68319;SDS011;55168;51.120;17.024;2023-03-18T04:59:00;9.8;;;7.1;;
68319;SDS011;55168;51.120;17.024;2023-03-18T05:00:00;9.8;;;7.1;;
68319;SDS011;55168;51.120;17.024;2023-03-18T05:01:00;9.8;;;7.1;;
68319;SDS011;55168;51.120;17.024;2023-03-18T05:02:00;10.2;;;6.6;;
68319;SDS011;55168;51.120;17.024;2023-03-18T05:03:00;10.2;;;6.6;;
68319;SDS011;55168;51.120;17.024;2023-03-18T05:04:00;10.2;;;6.6;;
68319;SDS011;55168;51.120;17.024;2023-03-18T05:05:00;10.2;;;6.6;;
68319;SDS011;55168;51.120;17.024;2023-03-18T05:06:00;10.2;;;6.6;;
68319;SDS011;55168;51.120;17.024;2023-03-18T05:07:00;9.6;;;7.0;;
68319;SDS011;55168;51.120;17.024;2023-03-18T05:08:00;9.6;;;7.0;;
68319;SDS011;55168;51.120;17.024;2023-03-18T05:09:00;9.6;;;7.0;;
68319;SDS011;55168;51.120;17.024;2023-03-18T05:10:00;9.6;;;7.0;;
68319;SDS011;55168;51.120;17.024;2023-03-18T05:11:00;9.6;;;7.0;;
68319;SDS011;55168;51.120;17.024;2023-03-18T05:12:00;10.8;;;6.9;;
68319;SDS011;55168;51.120;17.024;2023-03-18T05:13:00;10.8;;;6.9;;
68319;SDS011;55168;51.120;17.024;2023-03-18T05:14:00;10.8;;;6.9;;
68319;SDS011;55168;51.120;17.024;2023-03-18T05:15:00;10.8;;;6.9;;
68319;SDS011;55168;51.120;17.024;2023-03-18T05:16:00;10.8;;;6.9;;
68319;SDS011;55168;51.120;17.024;2023-03-18T05:17:00;9.3;;;7.2;;
68319;SDS011;55168;51.120;17.024;2023-03-18T05:18:00;9.3;;;7.2;;
68319;SDS011;55168;51.120;17.024;2023-03-18T05:19:00;9.3;;;7.2;;
68319;SDS011;55168;51.120;17.024;2023-03-18T05:20:00;9.3;;;7.2;;
68319;SDS011;55168;51.120;17.024;2023-03-18T05:21:00;9.3;;;7.2;;
68319;SDS011;55168;51.120;17.024;2023-03-18T05:22:00;12.3;;;6.9;;
68319;SDS011;55168;51.120;17.024;2023-03-18T05:23:01;12.3;;;6.9;;
68319;SDS011;55168;51.120;17.024;2023-03-18T05:24:00;12.3;;;6.9;;
68319;SDS011;55168;51.120;17.024;2023-03-18T05:25:00;12.3;;;6.9;;
68319;SDS011;55168;51.120;17.024;2023-03-18T05:26:00;12.3;;;6.9;;
68319;SDS011;55168;51.120;17.024;2023-03-18T05:27:00;10.6;;;7.4;;
68319;SDS011;55168;51.120;17.024;2023-03-18T05:28:00;10.6;;;7.4;;
68319;SDS011;55168;51.120;17.024;2023-03-18T05:29:00;10.6;;;7.4;;
68319;SDS011;55168;51.120;17.024;2023-03-18T05:30:00;10.6;;;7.4;;
68319;SDS011;55168;51.120;17.024;2023-03-18T05:31:00;10.6;;;7.4;;
68319;SDS011;55168;51.120;17.024;2023-03-18T05:32:00;11.5;;;7.0;;
68319;SDS011;55168;51.120;17.024;2023-03-18T05:33:00;11.5;;;7.0;;
68319;SDS011;55168;51.120;17.024;2023-03-18T05:34:00;11.5;;;7.0;;
68319;SDS011;55168;51.120;17.024;2023-03-18T05:35:00;11.5;;;7.0;;
68319;SDS011;55168;51.120;17.024;2023-03-18T05:36:00;11.5;;;7.0;;
68319;SDS011;55168;51.120;17.024;2023-03-18T05:37:00;7.9;;;6.5;;
68319;SDS011;55168;51.120;17.024;2023-03-18T05:38:00;7.9;;;6.5;;
68319;SDS011;55168;51.120;17.024;2023-03-18T05:39:00;7.9;;;6.5;;
68319;SDS011;55168;51.120;17.024;2023-03-18T05:40:00;7.9;;;6.5;;
68319;SDS011;55168;51.120;17.024;2023-03-18T05:41:00;7.9;;;6.5;;
68319;SDS011;55168;51.120;17.024;2023-03-18T05:42:00;8.7;;;7.0;;
68319;SDS011;55168;51.120;17.024;2023-03-18T05:43:00;8.7;;;7.0;;
68319;SDS011;55168;51.120;17.024;2023-03-18T05:44:00;8.7;;;7.0;;
68319;SDS011;55168;51.120;17.024;2023-03-18T05:45:00;8.7;;;7.0;;
68319;SDS011;55168;51.120;17.024;2023-03-18T05:46:00;8.7;;;7.0;;
68319;SDS011;55168;51.120;17.024;2023-03-18T05:47:00;10.4;;;6.6;;
68319;SDS011;55168;51.120;17.024;2023-03-18T05:48:00;10.4;;;6.6;;
68319;SDS011;55168;51.120;17.024;2023-03-18T05:49:00;10.4;;;6.6;;
68319;SDS011;55168;51.120;17.024;2023-03-18T05:50:00;10.4;;;6.6;;
68319;SDS011;55168;51.120;17.024;2023-03-18T05:51:00;10.4;;;6.6;;
68319;SDS011;55168;51.120;17.024;2023-03-18T05:52:00;10.4;;;6.7;;
68319;SDS011;55168;51.120;17.024;2023-03-18T05:53:02;10.4;;;6.7;;
68319;SDS011;55168;51.120;17.024;2023-03-18T05:54:00;10.4;;;6.7;;
68319;SDS011;55168;51.120;17.024;2023-03-18T05:55:00;10.4;;;6.7;;
68319;SDS011;55168;51.120;17.024;2023-03-18T05:56:00;10.4;;;6.7;;
68319;SDS011;55168;51.120;17.024;2023-03-18T05:57:00;10.9;;;7.0;;
68319;SDS011;55168;51.120;17.024;2023-03-18T05:58:01;10.9;;;7.0;;
68319;SDS011;55168;51.120;17.024;2023-03-18T05:59:00;10.9;;;7.0;;
68319;SDS011;55168;51.120;17.024;2023-03-18T06:00:00;10.9;;;7.0;;
68319;SDS011;55168;51.120;17.024;2023-03-18T06:01:00;10.9;;;7.0;;
68319;SDS011;55168;51.120;17.024;2023-03-18T06:02:01;10.1;;;6.2;;
68319;SDS011;55168;51.120;17.024;2023-03-18T06:03:01;10.1;;;6.2;;
68319;SDS011;55168;51.120;17.024;2023-03-18T06:04:00;10.1;;;6.2;;